sensor_id;sensor_type;location;lat;lon;timestamp;pressure;altitude;pressure_sealevel;temperature;humidity
29169;BME280;16219;42.864;23.360;2022-10-18T00:01:23;97445.09;;;5.47;100.00
29169;BME280;16219;42.864;23.360;2022-10-18T00:03:50;97440.88;;;5.46;100.00
29169;BME280;16219;42.864;23.360;2022-10-18T00:06:19;97445.09;;;5.47;100.00
29169;BME280;16219;42.864;23.360;2022-10-18T00:08:46;97438.84;;;5.48;100.00
29169;BME280;16219;42.864;23.360;2022-10-18T00:11:13;97429.88;;;5.44;100.00
29169;BME280;16219;42.864;23.360;2022-10-18T00:13:40;97440.34;;;5.44;100.00
29169;BME280;16219;42.864;23.360;2022-10-18T00:16:10;97431.13;;;5.42;100.00
29169;BME280;16219;42.864;23.360;2022-10-18T00:18:38;97428.59;;;5.47;100.00
29169;BME280;16219;42.864;23.360;2022-10-18T00:21:07;97430.88;;;5.43;100.00
29169;BME280;16219;42.864;23.360;2022-10-18T00:23:36;97409.41;;;5.41;100.00
29169;BME280;16219;42.864;23.360;2022-10-18T00:26:05;97417.97;;;5.37;100.00
29169;BME280;16219;42.864;23.360;2022-10-18T00:28:33;97411.03;;;5.31;100.00
29169;BME280;16219;42.864;23.360;2022-10-18T00:31:11;97413.44;;;5.32;100.00
29169;BME280;16219;42.864;23.360;2022-10-18T00:33:39;97419.19;;;5.17;100.00
29169;BME280;16219;42.864;23.360;2022-10-18T00:36:08;97404.75;;;4.98;100.00
29169;BME280;16219;42.864;23.360;2022-10-18T00:38:37;97401.59;;;5.13;100.00
29169;BME280;16219;42.864;23.360;2022-10-18T00:41:07;97395.09;;;5.15;100.00
29169;BME280;16219;42.864;23.360;2022-10-18T00:43:53;97399.03;;;5.18;100.00
29169;BME280;16219;42.864;23.360;2022-10-18T00:46:21;97391.13;;;5.13;100.00
29169;BME280;16219;42.864;23.360;2022-10-18T00:48:50;97395.81;;;5.11;100.00
29169;BME280;16219;42.864;23.360;2022-10-18T00:51:19;97386.69;;;5.13;100.00
29169;BME280;16219;42.864;23.360;2022-10-18T00:53:48;97393.81;;;5.18;100.00
29169;BME280;16219;42.864;23.360;2022-10-18T00:56:16;97390.66;;;5.16;100.00
29169;BME280;16219;42.864;23.360;2022-10-18T00:58:44;97390.09;;;5.14;100.00
29169;BME280;16219;42.864;23.360;2022-10-18T01:01:12;97383.19;;;5.08;100.00
29169;BME280;16219;42.864;23.360;2022-10-18T01:03:40;97379.91;;;5.00;100.00
29169;BME280;16219;42.864;23.360;2022-10-18T01:06:08;97379.84;;;4.95;100.00
29169;BME280;16219;42.864;23.360;2022-10-18T01:08:53;97382.19;;;4.97;100.00
29169;BME280;16219;42.864;23.360;2022-10-18T01:11:51;97381.19;;;4.98;100.00
29169;BME280;16219;42.864;23.360;2022-10-18T01:14:31;97385.06;;;4.95;100.00
29169;BME280;16219;42.864;23.360;2022-10-18T01:17:03;97375.56;;;4.89;100.00
29169;BME280;16219;42.864;23.360;2022-10-18T01:22:36;97364.56;;;4.75;100.00
29169;BME280;16219;42.864;23.360;2022-10-18T01:25:16;97362.97;;;4.46;100.00
29169;BME280;16219;42.864;23.360;2022-10-18T01:27:52;97360.03;;;4.42;100.00
29169;BME280;16219;42.864;23.360;2022-10-18T01:30:41;97359.78;;;4.56;100.00
29169;BME280;16219;42.864;23.360;2022-10-18T01:33:19;97355.66;;;4.60;100.00
29169;BME280;16219;42.864;23.360;2022-10-18T01:35:51;97349.16;;;4.34;100.00
29169;BME280;16219;42.864;23.360;2022-10-18T01:38:19;97360.31;;;4.58;100.00
29169;BME280;16219;42.864;23.360;2022-10-18T01:40:49;97353.38;;;4.63;100.00
29169;BME280;16219;42.864;23.360;2022-10-18T01:43:19;97356.09;;;4.68;100.00
29169;BME280;16219;42.864;23.360;2022-10-18T01:45:48;97350.63;;;4.70;100.00
29169;BME280;16219;42.864;23.360;2022-10-18T01:48:19;97355.19;;;4.63;100.00
29169;BME280;16219;42.864;23.360;2022-10-18T01:50:46;97354.50;;;4.67;100.00
29169;BME280;16219;42.864;23.360;2022-10-18T01:53:21;97353.31;;;4.75;100.00
29169;BME280;16219;42.864;23.360;2022-10-18T01:55:55;97362.97;;;4.74;100.00
29169;BME280;16219;42.864;23.360;2022-10-18T01:58:35;97351.97;;;4.72;100.00
29169;BME280;16219;42.864;23.360;2022-10-18T02:01:10;97364.25;;;4.72;100.00
29169;BME280;16219;42.864;23.360;2022-10-18T02:03:45;97352.97;;;4.71;100.00
29169;BME280;16219;42.864;23.360;2022-10-18T02:06:19;97355.56;;;4.55;100.00
29169;BME280;16219;42.864;23.360;2022-10-18T02:08:51;97352.03;;;4.61;100.00
29169;BME280;16219;42.864;23.360;2022-10-18T02:11:21;97353.69;;;4.67;100.00
29169;BME280;16219;42.864;23.360;2022-10-18T02:13:52;97346.19;;;4.70;100.00
29169;BME280;16219;42.864;23.360;2022-10-18T02:16:24;97348.00;;;4.70;100.00
29169;BME280;16219;42.864;23.360;2022-10-18T02:18:56;97348.47;;;4.67;100.00
29169;BME280;16219;42.864;23.360;2022-10-18T02:21:24;97353.16;;;4.65;100.00
29169;BME280;16219;42.864;23.360;2022-10-18T02:23:54;97352.97;;;4.55;100.00
29169;BME280;16219;42.864;23.360;2022-10-18T02:26:23;97358.66;;;4.51;100.00
29169;BME280;16219;42.864;23.360;2022-10-18T02:28:51;97353.88;;;4.48;100.00
29169;BME280;16219;42.864;23.360;2022-10-18T02:31:22;97355.38;;;4.44;100.00
29169;BME280;16219;42.864;23.360;2022-10-18T02:33:55;97329.88;;;4.23;100.00
29169;BME280;16219;42.864;23.360;2022-10-18T02:36:26;97355.72;;;4.36;100.00
29169;BME280;16219;42.864;23.360;2022-10-18T02:38:58;97354.06;;;4.30;100.00
29169;BME280;16219;42.864;23.360;2022-10-18T02:41:27;97354.25;;;4.29;100.00
29169;BME280;16219;42.864;23.360;2022-10-18T02:43:56;97350.31;;;4.26;100.00
29169;BME280;16219;42.864;23.360;2022-10-18T02:46:24;97352.69;;;4.28;100.00
29169;BME280;16219;42.864;23.360;2022-10-18T02:48:52;97344.88;;;4.16;100.00
29169;BME280;16219;42.864;23.360;2022-10-18T02:51:19;97345.13;;;4.03;100.00
29169;BME280;16219;42.864;23.360;2022-10-18T02:53:46;97348.41;;;4.10;100.00
29169;BME280;16219;42.864;23.360;2022-10-18T02:56:13;97344.06;;;4.15;100.00
29169;BME280;16219;42.864;23.360;2022-10-18T02:58:40;97349.53;;;4.14;100.00
29169;BME280;16219;42.864;23.360;2022-10-18T03:01:07;97349.19;;;4.10;100.00
29169;BME280;16219;42.864;23.360;2022-10-18T03:03:36;97339.13;;;3.90;100.00
29169;BME280;16219;42.864;23.360;2022-10-18T03:06:04;97345.38;;;3.89;100.00
29169;BME280;16219;42.864;23.360;2022-10-18T03:08:31;97344.66;;;4.06;100.00
29169;BME280;16219;42.864;23.360;2022-10-18T03:10:58;97341.81;;;4.07;100.00
29169;BME280;16219;42.864;23.360;2022-10-18T03:13:25;97347.38;;;4.11;100.00
29169;BME280;16219;42.864;23.360;2022-10-18T03:15:52;97350.00;;;4.11;100.00
29169;BME280;16219;42.864;23.360;2022-10-18T03:18:19;97356.69;;;4.07;100.00
29169;BME280;16219;42.864;23.360;2022-10-18T03:20:47;97352.50;;;4.06;100.00
29169;BME280;16219;42.864;23.360;2022-10-18T03:23:14;97354.31;;;4.05;100.00
29169;BME280;16219;42.864;23.360;2022-10-18T03:25:41;97350.69;;;4.06;100.00
29169;BME280;16219;42.864;23.360;2022-10-18T03:28:10;97346.16;;;4.01;100.00
29169;BME280;16219;42.864;23.360;2022-10-18T03:30:38;97345.59;;;3.99;100.00
29169;BME280;16219;42.864;23.360;2022-10-18T03:33:05;97337.44;;;3.96;100.00
29169;BME280;16219;42.864;23.360;2022-10-18T03:35:32;97338.78;;;3.98;100.00
29169;BME280;16219;42.864;23.360;2022-10-18T03:38:00;97347.97;;;4.01;100.00
29169;BME280;16219;42.864;23.360;2022-10-18T03:40:27;97341.28;;;3.93;100.00
29169;BME280;16219;42.864;23.360;2022-10-18T03:42:54;97346.50;;;3.93;100.00
29169;BME280;16219;42.864;23.360;2022-10-18T03:45:22;97343.78;;;3.88;100.00
29169;BME280;16219;42.864;23.360;2022-10-18T03:47:49;97357.88;;;3.87;100.00
29169;BME280;16219;42.864;23.360;2022-10-18T03:50:16;97347.19;;;3.77;100.00
29169;BME280;16219;42.864;23.360;2022-10-18T03:52:43;97348.56;;;3.68;100.00
29169;BME280;16219;42.864;23.360;2022-10-18T03:55:11;97360.28;;;3.65;100.00
29169;BME280;16219;42.864;23.360;2022-10-18T03:57:39;97363.31;;;3.50;100.00
29169;BME280;16219;42.864;23.360;2022-10-18T04:00:07;97353.41;;;3.29;100.00
29169;BME280;16219;42.864;23.360;2022-10-18T04:02:40;97353.88;;;3.38;100.00
29169;BME280;16219;42.864;23.360;2022-10-18T04:05:08;97357.66;;;3.54;100.00
29169;BME280;16219;42.864;23.360;2022-10-18T04:07:35;97359.78;;;3.57;100.00
29169;BME280;16219;42.864;23.360;2022-10-18T04:10:02;97358.00;;;3.57;100.00
29169;BME280;16219;42.864;23.360;2022-10-18T04:12:31;97356.19;;;3.58;100.00
29169;BME280;16219;42.864;23.360;2022-10-18T04:14:58;97364.56;;;3.60;100.00
29169;BME280;16219;42.864;23.360;2022-10-18T04:17:25;97358.78;;;3.58;100.00
29169;BME280;16219;42.864;23.360;2022-10-18T04:19:52;97357.06;;;3.51;100.00
29169;BME280;16219;42.864;23.360;2022-10-18T04:22:20;97362.88;;;3.54;100.00
29169;BME280;16219;42.864;23.360;2022-10-18T04:24:47;97360.81;;;3.32;100.00
29169;BME280;16219;42.864;23.360;2022-10-18T04:27:14;97358.19;;;3.44;100.00
29169;BME280;16219;42.864;23.360;2022-10-18T04:29:42;97360.34;;;3.47;100.00
29169;BME280;16219;42.864;23.360;2022-10-18T04:32:09;97349.00;;;3.41;100.00
29169;BME280;16219;42.864;23.360;2022-10-18T04:34:37;97344.38;;;3.32;100.00
29169;BME280;16219;42.864;23.360;2022-10-18T04:37:04;97338.69;;;3.35;100.00
29169;BME280;16219;42.864;23.360;2022-10-18T04:39:32;97347.03;;;3.13;100.00
29169;BME280;16219;42.864;23.360;2022-10-18T04:41:59;97344.47;;;3.25;100.00
29169;BME280;16219;42.864;23.360;2022-10-18T04:44:26;97340.84;;;3.38;100.00
29169;BME280;16219;42.864;23.360;2022-10-18T04:46:55;97340.06;;;3.37;100.00
29169;BME280;16219;42.864;23.360;2022-10-18T04:49:22;97337.88;;;3.34;100.00
29169;BME280;16219;42.864;23.360;2022-10-18T04:51:49;97349.47;;;3.38;100.00
29169;BME280;16219;42.864;23.360;2022-10-18T04:54:16;97343.88;;;3.35;100.00
29169;BME280;16219;42.864;23.360;2022-10-18T04:56:44;97342.31;;;3.34;100.00
29169;BME280;16219;42.864;23.360;2022-10-18T04:59:11;97335.84;;;3.36;100.00
29169;BME280;16219;42.864;23.360;2022-10-18T05:01:38;97339.59;;;3.40;100.00
29169;BME280;16219;42.864;23.360;2022-10-18T05:04:06;97340.59;;;3.39;100.00
29169;BME280;16219;42.864;23.360;2022-10-18T05:06:34;97344.25;;;3.38;100.00
29169;BME280;16219;42.864;23.360;2022-10-18T05:09:01;97347.53;;;3.34;100.00
29169;BME280;16219;42.864;23.360;2022-10-18T05:11:28;97347.88;;;3.37;100.00
29169;BME280;16219;42.864;23.360;2022-10-18T05:13:55;97344.81;;;3.40;100.00
29169;BME280;16219;42.864;23.360;2022-10-18T05:16:22;97347.09;;;3.37;100.00
29169;BME280;16219;42.864;23.360;2022-10-18T05:18:49;97345.25;;;3.37;100.00
29169;BME280;16219;42.864;23.360;2022-10-18T05:21:17;97342.66;;;3.37;100.00
29169;BME280;16219;42.864;23.360;2022-10-18T05:23:44;97344.13;;;3.33;100.00
29169;BME280;16219;42.864;23.360;2022-10-18T05:26:12;97338.13;;;3.33;100.00
29169;BME280;16219;42.864;23.360;2022-10-18T05:28:39;97345.97;;;3.44;100.00
29169;BME280;16219;42.864;23.360;2022-10-18T05:31:07;97347.09;;;3.48;100.00
29169;BME280;16219;42.864;23.360;2022-10-18T05:33:35;97346.63;;;3.51;100.00
29169;BME280;16219;42.864;23.360;2022-10-18T05:36:02;97342.66;;;3.61;100.00
29169;BME280;16219;42.864;23.360;2022-10-18T05:38:31;97347.78;;;3.67;100.00
29169;BME280;16219;42.864;23.360;2022-10-18T05:40:58;97346.84;;;3.73;100.00
29169;BME280;16219;42.864;23.360;2022-10-18T05:43:26;97341.19;;;3.88;100.00
29169;BME280;16219;42.864;23.360;2022-10-18T05:45:54;97341.97;;;3.89;100.00
29169;BME280;16219;42.864;23.360;2022-10-18T05:48:21;97339.25;;;3.95;100.00
29169;BME280;16219;42.864;23.360;2022-10-18T05:50:49;97336.28;;;4.04;100.00
29169;BME280;16219;42.864;23.360;2022-10-18T05:53:16;97345.91;;;4.15;100.00
29169;BME280;16219;42.864;23.360;2022-10-18T05:55:44;97342.47;;;4.26;100.00
29169;BME280;16219;42.864;23.360;2022-10-18T05:58:11;97340.13;;;4.41;100.00
29169;BME280;16219;42.864;23.360;2022-10-18T06:00:40;97335.69;;;4.54;100.00
29169;BME280;16219;42.864;23.360;2022-10-18T06:03:08;97344.72;;;4.63;100.00
29169;BME280;16219;42.864;23.360;2022-10-18T06:05:35;97335.72;;;4.70;100.00
29169;BME280;16219;42.864;23.360;2022-10-18T06:08:02;97338.03;;;4.84;100.00
29169;BME280;16219;42.864;23.360;2022-10-18T06:10:29;97335.13;;;4.97;100.00
29169;BME280;16219;42.864;23.360;2022-10-18T06:12:57;97339.75;;;5.07;100.00
29169;BME280;16219;42.864;23.360;2022-10-18T06:15:24;97338.88;;;5.18;100.00
29169;BME280;16219;42.864;23.360;2022-10-18T06:17:51;97333.75;;;5.23;100.00
29169;BME280;16219;42.864;23.360;2022-10-18T06:20:19;97325.50;;;5.31;100.00
29169;BME280;16219;42.864;23.360;2022-10-18T06:22:46;97334.34;;;5.47;100.00
29169;BME280;16219;42.864;23.360;2022-10-18T06:25:13;97339.97;;;5.56;100.00
29169;BME280;16219;42.864;23.360;2022-10-18T06:27:40;97335.69;;;5.66;100.00
29169;BME280;16219;42.864;23.360;2022-10-18T06:30:09;97342.97;;;5.81;100.00
29169;BME280;16219;42.864;23.360;2022-10-18T06:32:36;97339.94;;;5.89;100.00
29169;BME280;16219;42.864;23.360;2022-10-18T06:35:04;97333.78;;;5.95;100.00
29169;BME280;16219;42.864;23.360;2022-10-18T06:37:31;97334.22;;;6.09;100.00
29169;BME280;16219;42.864;23.360;2022-10-18T06:39:59;97335.09;;;6.20;100.00
29169;BME280;16219;42.864;23.360;2022-10-18T06:42:27;97347.56;;;6.30;100.00
29169;BME280;16219;42.864;23.360;2022-10-18T06:44:54;97346.34;;;6.37;100.00
29169;BME280;16219;42.864;23.360;2022-10-18T06:47:23;97323.53;;;6.38;100.00
29169;BME280;16219;42.864;23.360;2022-10-18T06:49:50;97349.38;;;6.51;100.00
29169;BME280;16219;42.864;23.360;2022-10-18T06:52:17;97344.53;;;6.65;100.00
29169;BME280;16219;42.864;23.360;2022-10-18T06:54:47;97338.72;;;6.85;100.00
29169;BME280;16219;42.864;23.360;2022-10-18T06:57:14;97343.75;;;6.91;100.00
29169;BME280;16219;42.864;23.360;2022-10-18T06:59:41;97329.25;;;7.11;100.00
29169;BME280;16219;42.864;23.360;2022-10-18T07:02:08;97334.88;;;7.24;100.00
29169;BME280;16219;42.864;23.360;2022-10-18T07:04:39;97328.94;;;7.39;100.00
29169;BME280;16219;42.864;23.360;2022-10-18T07:07:06;97330.09;;;7.54;100.00
29169;BME280;16219;42.864;23.360;2022-10-18T07:09:33;97327.56;;;7.69;100.00
29169;BME280;16219;42.864;23.360;2022-10-18T07:12:00;97328.19;;;7.86;100.00
29169;BME280;16219;42.864;23.360;2022-10-18T07:14:27;97328.22;;;7.91;100.00
29169;BME280;16219;42.864;23.360;2022-10-18T07:16:57;97319.09;;;8.04;100.00
29169;BME280;16219;42.864;23.360;2022-10-18T07:19:24;97326.53;;;8.22;100.00
29169;BME280;16219;42.864;23.360;2022-10-18T07:21:53;97322.34;;;8.32;100.00
29169;BME280;16219;42.864;23.360;2022-10-18T07:24:20;97316.31;;;8.36;100.00
29169;BME280;16219;42.864;23.360;2022-10-18T07:26:47;97310.38;;;8.56;100.00
29169;BME280;16219;42.864;23.360;2022-10-18T07:29:14;97304.31;;;8.66;100.00
29169;BME280;16219;42.864;23.360;2022-10-18T07:31:41;97302.00;;;8.85;100.00
29169;BME280;16219;42.864;23.360;2022-10-18T07:34:11;97297.53;;;8.95;100.00
29169;BME280;16219;42.864;23.360;2022-10-18T07:36:38;97294.91;;;9.11;100.00
29169;BME280;16219;42.864;23.360;2022-10-18T07:39:07;97289.63;;;9.21;100.00
29169;BME280;16219;42.864;23.360;2022-10-18T07:41:34;97289.09;;;9.34;100.00
29169;BME280;16219;42.864;23.360;2022-10-18T07:44:02;97283.81;;;9.49;100.00
29169;BME280;16219;42.864;23.360;2022-10-18T07:46:30;97284.09;;;9.48;100.00
29169;BME280;16219;42.864;23.360;2022-10-18T07:48:58;97279.28;;;9.75;100.00
29169;BME280;16219;42.864;23.360;2022-10-18T07:51:25;97275.28;;;9.88;100.00
29169;BME280;16219;42.864;23.360;2022-10-18T07:53:57;97278.41;;;10.00;100.00
29169;BME280;16219;42.864;23.360;2022-10-18T07:56:25;97274.13;;;10.15;100.00
29169;BME280;16219;42.864;23.360;2022-10-18T07:58:54;97268.78;;;10.35;100.00
29169;BME280;16219;42.864;23.360;2022-10-18T08:01:23;97271.91;;;10.47;100.00
29169;BME280;16219;42.864;23.360;2022-10-18T08:03:50;97253.97;;;10.49;100.00
29169;BME280;16219;42.864;23.360;2022-10-18T08:06:18;97262.50;;;10.75;100.00
29169;BME280;16219;42.864;23.360;2022-10-18T08:08:46;97249.44;;;10.89;100.00
29169;BME280;16219;42.864;23.360;2022-10-18T08:11:15;97252.19;;;11.08;100.00
29169;BME280;16219;42.864;23.360;2022-10-18T08:13:45;97241.56;;;11.18;100.00
29169;BME280;16219;42.864;23.360;2022-10-18T08:16:14;97240.53;;;11.43;100.00
29169;BME280;16219;42.864;23.360;2022-10-18T08:18:41;97233.28;;;11.54;100.00
29169;BME280;16219;42.864;23.360;2022-10-18T08:21:10;97238.19;;;11.66;100.00
29169;BME280;16219;42.864;23.360;2022-10-18T08:23:38;97217.25;;;11.69;100.00
29169;BME280;16219;42.864;23.360;2022-10-18T08:26:06;97221.59;;;11.84;100.00
29169;BME280;16219;42.864;23.360;2022-10-18T08:28:34;97219.00;;;12.03;100.00
29169;BME280;16219;42.864;23.360;2022-10-18T08:31:04;97216.38;;;12.22;100.00
29169;BME280;16219;42.864;23.360;2022-10-18T08:33:31;97208.38;;;12.46;100.00
29169;BME280;16219;42.864;23.360;2022-10-18T08:36:03;97204.13;;;12.64;100.00
29169;BME280;16219;42.864;23.360;2022-10-18T08:38:32;97197.09;;;12.73;100.00
29169;BME280;16219;42.864;23.360;2022-10-18T08:40:59;97199.84;;;13.00;100.00
29169;BME280;16219;42.864;23.360;2022-10-18T08:43:32;97188.84;;;13.07;100.00
29169;BME280;16219;42.864;23.360;2022-10-18T08:46:07;97181.66;;;13.27;100.00
29169;BME280;16219;42.864;23.360;2022-10-18T08:48:41;97178.91;;;13.45;100.00
29169;BME280;16219;42.864;23.360;2022-10-18T08:51:17;97169.28;;;13.63;100.00
29169;BME280;16219;42.864;23.360;2022-10-18T08:53:53;97180.47;;;13.88;100.00
29169;BME280;16219;42.864;23.360;2022-10-18T08:56:22;97175.81;;;14.07;100.00
29169;BME280;16219;42.864;23.360;2022-10-18T08:58:52;97180.00;;;14.22;100.00
29169;BME280;16219;42.864;23.360;2022-10-18T09:01:27;97171.13;;;14.40;100.00
29169;BME280;16219;42.864;23.360;2022-10-18T09:04:08;97175.44;;;14.50;100.00
29169;BME280;16219;42.864;23.360;2022-10-18T09:06:46;97169.69;;;14.57;100.00
29169;BME280;16219;42.864;23.360;2022-10-18T09:09:24;97166.16;;;14.61;96.05
29169;BME280;16219;42.864;23.360;2022-10-18T09:11:59;97168.81;;;14.61;90.34
29169;BME280;16219;42.864;23.360;2022-10-18T09:15:15;97158.06;;;14.66;88.61
29169;BME280;16219;42.864;23.360;2022-10-18T09:17:53;97165.13;;;14.71;87.48
29169;BME280;16219;42.864;23.360;2022-10-18T09:20:25;97164.06;;;14.81;91.90
29169;BME280;16219;42.864;23.360;2022-10-18T09:22:55;97156.47;;;14.88;94.01
29169;BME280;16219;42.864;23.360;2022-10-18T09:25:30;97152.75;;;14.97;82.62
29169;BME280;16219;42.864;23.360;2022-10-18T09:28:02;97142.22;;;15.15;78.96
29169;BME280;16219;42.864;23.360;2022-10-18T09:30:39;97147.00;;;15.35;90.73
29169;BME280;16219;42.864;23.360;2022-10-18T09:33:13;97145.28;;;15.39;87.68
29169;BME280;16219;42.864;23.360;2022-10-18T09:35:47;97136.13;;;15.63;84.66
29169;BME280;16219;42.864;23.360;2022-10-18T09:38:15;97133.50;;;15.71;84.80
29169;BME280;16219;42.864;23.360;2022-10-18T09:40:45;97137.13;;;15.84;78.47
29169;BME280;16219;42.864;23.360;2022-10-18T09:43:17;97130.25;;;15.83;78.53
29169;BME280;16219;42.864;23.360;2022-10-18T09:45:46;97126.34;;;15.81;72.99
29169;BME280;16219;42.864;23.360;2022-10-18T09:48:16;97129.28;;;15.79;69.97
29169;BME280;16219;42.864;23.360;2022-10-18T09:50:46;97124.94;;;15.92;81.91
29169;BME280;16219;42.864;23.360;2022-10-18T09:53:15;97128.53;;;16.05;75.71
29169;BME280;16219;42.864;23.360;2022-10-18T09:55:50;97117.28;;;16.16;64.41
29169;BME280;16219;42.864;23.360;2022-10-18T09:58:17;97115.22;;;16.31;68.26
29169;BME280;16219;42.864;23.360;2022-10-18T10:00:46;97118.03;;;16.43;57.98
29169;BME280;16219;42.864;23.360;2022-10-18T10:03:15;97113.63;;;16.56;56.59
29169;BME280;16219;42.864;23.360;2022-10-18T10:05:43;97108.13;;;16.61;57.39
29169;BME280;16219;42.864;23.360;2022-10-18T10:08:10;97103.44;;;16.66;53.18
29169;BME280;16219;42.864;23.360;2022-10-18T10:10:37;97089.94;;;16.80;53.13
29169;BME280;16219;42.864;23.360;2022-10-18T10:13:05;97082.41;;;16.91;54.76
29169;BME280;16219;42.864;23.360;2022-10-18T10:15:33;97076.16;;;16.87;52.07
29169;BME280;16219;42.864;23.360;2022-10-18T10:18:01;97072.78;;;16.98;53.64
29169;BME280;16219;42.864;23.360;2022-10-18T10:20:32;97064.13;;;17.10;54.90
29169;BME280;16219;42.864;23.360;2022-10-18T10:23:04;97065.34;;;17.21;49.65
29169;BME280;16219;42.864;23.360;2022-10-18T10:25:33;97062.47;;;17.27;51.88
29169;BME280;16219;42.864;23.360;2022-10-18T10:28:02;97058.34;;;17.38;50.14
29169;BME280;16219;42.864;23.360;2022-10-18T10:30:30;97055.16;;;17.44;47.57
29169;BME280;16219;42.864;23.360;2022-10-18T10:32:57;97040.53;;;17.51;46.98
29169;BME280;16219;42.864;23.360;2022-10-18T10:35:28;97041.38;;;17.42;46.65
29169;BME280;16219;42.864;23.360;2022-10-18T10:37:58;97034.88;;;17.52;48.34
29169;BME280;16219;42.864;23.360;2022-10-18T10:40:25;97035.72;;;17.65;47.43
29169;BME280;16219;42.864;23.360;2022-10-18T10:43:00;97022.91;;;17.79;47.78
29169;BME280;16219;42.864;23.360;2022-10-18T10:45:28;97020.66;;;17.90;49.58
29169;BME280;16219;42.864;23.360;2022-10-18T10:48:01;97009.63;;;17.91;48.46
29169;BME280;16219;42.864;23.360;2022-10-18T10:50:29;97009.03;;;18.07;49.68
29169;BME280;16219;42.864;23.360;2022-10-18T10:52:56;96998.59;;;18.14;45.99
29169;BME280;16219;42.864;23.360;2022-10-18T10:55:26;96999.94;;;18.20;44.60
29169;BME280;16219;42.864;23.360;2022-10-18T10:57:54;96998.19;;;18.24;44.54
29169;BME280;16219;42.864;23.360;2022-10-18T11:00:34;96986.16;;;18.30;46.83
29169;BME280;16219;42.864;23.360;2022-10-18T11:03:04;96981.97;;;18.41;44.36
29169;BME280;16219;42.864;23.360;2022-10-18T11:05:32;96976.84;;;18.48;44.14
29169;BME280;16219;42.864;23.360;2022-10-18T11:08:07;96977.75;;;18.53;46.94
29169;BME280;16219;42.864;23.360;2022-10-18T11:10:38;96979.09;;;18.59;44.54
29169;BME280;16219;42.864;23.360;2022-10-18T11:13:14;96974.19;;;18.48;40.97
29169;BME280;16219;42.864;23.360;2022-10-18T11:15:48;96969.50;;;18.58;42.21
29169;BME280;16219;42.864;23.360;2022-10-18T11:18:20;96959.47;;;18.55;41.70
29169;BME280;16219;42.864;23.360;2022-10-18T11:20:49;96961.25;;;18.51;41.67
29169;BME280;16219;42.864;23.360;2022-10-18T11:23:18;96951.47;;;18.67;41.09
29169;BME280;16219;42.864;23.360;2022-10-18T11:25:53;96945.94;;;18.72;43.39
29169;BME280;16219;42.864;23.360;2022-10-18T11:28:27;96945.28;;;18.75;42.97
29169;BME280;16219;42.864;23.360;2022-10-18T11:30:58;96929.22;;;18.75;42.93
29169;BME280;16219;42.864;23.360;2022-10-18T11:33:30;96929.22;;;18.87;42.83
29169;BME280;16219;42.864;23.360;2022-10-18T11:36:02;96929.88;;;18.84;40.20
29169;BME280;16219;42.864;23.360;2022-10-18T11:38:35;96923.22;;;18.90;41.79
29169;BME280;16219;42.864;23.360;2022-10-18T11:43:54;96913.63;;;18.89;39.98
29169;BME280;16219;42.864;23.360;2022-10-18T11:46:24;96913.28;;;18.91;40.19
29169;BME280;16219;42.864;23.360;2022-10-18T11:49:02;96904.25;;;18.95;40.67
29169;BME280;16219;42.864;23.360;2022-10-18T11:51:34;96904.25;;;18.95;38.67
29169;BME280;16219;42.864;23.360;2022-10-18T11:54:14;96895.13;;;18.96;38.02
29169;BME280;16219;42.864;23.360;2022-10-18T11:56:45;96882.97;;;18.99;37.76
29169;BME280;16219;42.864;23.360;2022-10-18T11:59:21;96882.16;;;18.98;37.78
29169;BME280;16219;42.864;23.360;2022-10-18T12:01:56;96875.38;;;19.01;37.09
29169;BME280;16219;42.864;23.360;2022-10-18T12:04:26;96873.16;;;19.03;37.73
29169;BME280;16219;42.864;23.360;2022-10-18T12:06:57;96859.44;;;19.05;38.39
29169;BME280;16219;42.864;23.360;2022-10-18T12:09:26;96862.66;;;19.10;38.40
29169;BME280;16219;42.864;23.360;2022-10-18T12:11:54;96859.06;;;19.18;38.55
29169;BME280;16219;42.864;23.360;2022-10-18T12:14:26;96850.38;;;19.21;38.22
29169;BME280;16219;42.864;23.360;2022-10-18T12:16:55;96847.91;;;19.29;39.02
29169;BME280;16219;42.864;23.360;2022-10-18T12:19:24;96844.00;;;19.26;35.92
29169;BME280;16219;42.864;23.360;2022-10-18T12:21:52;96844.41;;;19.28;36.87
29169;BME280;16219;42.864;23.360;2022-10-18T12:24:21;96834.25;;;19.34;35.87
29169;BME280;16219;42.864;23.360;2022-10-18T12:26:50;96828.31;;;19.40;36.84
29169;BME280;16219;42.864;23.360;2022-10-18T12:29:22;96832.13;;;19.39;35.25
29169;BME280;16219;42.864;23.360;2022-10-18T12:31:53;96829.97;;;19.45;36.27
29169;BME280;16219;42.864;23.360;2022-10-18T12:34:27;96817.72;;;19.44;34.83
29169;BME280;16219;42.864;23.360;2022-10-18T12:37:03;96818.94;;;19.46;35.93
29169;BME280;16219;42.864;23.360;2022-10-18T12:39:35;96821.72;;;19.50;37.47
29169;BME280;16219;42.864;23.360;2022-10-18T12:42:04;96814.41;;;19.63;36.81
29169;BME280;16219;42.864;23.360;2022-10-18T12:44:31;96808.84;;;19.56;34.95
29169;BME280;16219;42.864;23.360;2022-10-18T12:47:00;96806.69;;;19.45;34.18
29169;BME280;16219;42.864;23.360;2022-10-18T12:49:37;96802.44;;;19.44;33.76
29169;BME280;16219;42.864;23.360;2022-10-18T12:52:19;96798.03;;;19.52;35.22
29169;BME280;16219;42.864;23.360;2022-10-18T12:55:00;96801.84;;;19.51;36.41
29169;BME280;16219;42.864;23.360;2022-10-18T12:57:59;96793.03;;;19.51;35.12
29169;BME280;16219;42.864;23.360;2022-10-18T13:03:33;96790.78;;;19.53;35.38
29169;BME280;16219;42.864;23.360;2022-10-18T13:06:02;96789.50;;;19.46;36.13
29169;BME280;16219;42.864;23.360;2022-10-18T13:08:35;96788.88;;;19.53;33.72
29169;BME280;16219;42.864;23.360;2022-10-18T13:13:52;96778.28;;;19.57;34.60
29169;BME280;16219;42.864;23.360;2022-10-18T13:16:29;96778.88;;;19.50;35.73